Delaware — WYU8553 — position and weather

sailwx.info

Track history (hours):
 
Tides and Currents Weather Stations Pressure Air Temp Water Temp Dewpoint Dewpoint Depression Visibility Wind Speed Wind Dir Waves Ship Positions

Delaware

Owner: DELAWARE RIVER & BAY AUTHORITY, NORTH CAPE MAY, NJ. More information available from US FCC via Universal Licensing System and Coast Guard Vessel Documentation Center.

Last reported at 2018-Jun-20 01:13 UTC. Time now 2018-Jun-20 01:58 UTC.
Position N 38°58' W 074°58'.

; draft 2.2 m.

Type: Ship. MMSI: 366914210.

Date/timePositionNaut miles runAvg speedWind from/ knotsBaromVisibWave heightAir tempDewpointWater temp
2018-Jun-20 01:13N 38°58' W 074°58'1 6.6
2018-Jun-20 00:59N 38°57' W 074°59'510.9
2018-Jun-20 00:31N 38°53' W 075°03'710.3
2018-Jun-19 23:50N 38°47' W 075°07'0 0.1
2018-Jun-19 23:26N 38°47' W 075°07'1210.2
2018-Jun-19 22:19N 38°57' W 074°60'2 3.7
2018-Jun-19 21:46N 38°58' W 074°58'2 7.8
2018-Jun-19 21:29N 38°57' W 074°60'11 8.4
2018-Jun-19 20:09N 38°47' W 075°07'2 5.3
2018-Jun-19 19:41N 38°49' W 075°07'4 0.2
2018-Jun-18 21:01N 38°53' W 075°04'6 6.4
2018-Jun-18 20:03N 38°47' W 075°07'0 1.4
2018-Jun-18 20:00N 38°47' W 075°07'0 0.0
2018-Jun-18 15:55N 38°47' W 075°07'610.6
2018-Jun-18 15:19N 38°53' W 075°04'711.1
2018-Jun-18 14:42N 38°58' W 074°58'1 2.7
2018-Jun-18 14:30N 38°58' W 074°58'0 1.0
2018-Jun-18 14:00N 38°58' W 074°58'612.4
2018-Jun-18 13:30N 38°53' W 075°03'611.7
2018-Jun-18 13:00N 38°48' W 075°07'1 2.5
2018-Jun-18 12:30N 38°47' W 075°07'3 6.8
2018-Jun-18 12:00N 38°50' W 075°06'713.3
2018-Jun-18 11:30N 38°56' W 075°01'4 7.5
2018-Jun-18 11:00N 38°58' W 074°58'0 0.0
2018-Jun-18 10:28N 38°58' W 074°58'0 0.0
2018-Jun-18 09:58N 38°58' W 074°58'0 0.0
2018-Jun-18 09:28N 38°58' W 074°58'0 0.0
2018-Jun-18 08:58N 38°58' W 074°58'0 0.0
2018-Jun-18 08:28N 38°58' W 074°58'0 0.0
2018-Jun-18 07:58N 38°58' W 074°58'0 0.0
2018-Jun-18 07:28N 38°58' W 074°58'0 0.0
2018-Jun-18 06:58N 38°58' W 074°58'0 0.0
2018-Jun-18 06:25N 38°58' W 074°58'0 0.0
2018-Jun-18 05:58N 38°58' W 074°58'0 0.0
2018-Jun-18 05:28N 38°58' W 074°58'0 0.0
2018-Jun-18 04:58N 38°58' W 074°58'0 0.0
2018-Jun-18 04:28N 38°58' W 074°58'0 0.0
2018-Jun-18 03:58N 38°58' W 074°58'0 0.0
2018-Jun-18 03:28N 38°58' W 074°58'0 0.0
2018-Jun-18 02:58N 38°58' W 074°58'0 0.0
2018-Jun-18 02:28N 38°58' W 074°58'0 0.0
2018-Jun-18 01:58N 38°58' W 074°58'0 0.0
2018-Jun-18 01:25N 38°58' W 074°58'2 4.0
2018-Jun-18 00:59N 38°57' W 074°59'613.1
2018-Jun-18 00:30N 38°52' W 075°04'0 0.3
2018-Jun-17 23:06N 38°52' W 075°05'8 6.5
2018-Jun-17 21:51N 38°58' W 074°58'3 7.6
2018-Jun-17 21:30N 38°57' W 075°00'510.5
2018-Jun-17 21:00N 38°52' W 075°03'2 0.4
2018-Jun-17 15:14N 38°54' W 075°03'511.3
2018-Jun-17 14:46N 38°58' W 074°58'1 2.7
2018-Jun-17 14:30N 38°58' W 074°58'13 6.3
2018-Jun-17 12:24N 38°47' W 075°07'13 1.9
2018-Jun-17 05:19N 38°58' W 074°58'0 0.0
2018-Jun-17 04:13N 38°58' W 074°58'0 0.0
2018-Jun-17 04:00N 38°58' W 074°58'0 0.0
2018-Jun-17 03:30N 38°58' W 074°58'0 0.0
2018-Jun-17 03:00N 38°58' W 074°58'0 0.0
2018-Jun-17 02:30N 38°58' W 074°58'0 0.0
2018-Jun-17 01:59N 38°58' W 074°58'0 0.0
2018-Jun-16 14:35N 38°58' W 074°58'0 0.2
2018-Jun-16 14:18N 38°58' W 074°58'2 4.7
2018-Jun-16 13:58N 38°57' W 074°59'612.3
2018-Jun-16 13:31N 38°53' W 075°04'611.6
2018-Jun-16 13:01N 38°48' W 075°07'1 1.1
2018-Jun-16 12:30N 38°47' W 075°07'4 8.4
2018-Jun-16 12:00N 38°51' W 075°06'510.9
2018-Jun-16 11:30N 38°55' W 075°02'4 8.0
2018-Jun-16 11:00N 38°58' W 074°58'0 0.0
2018-Jun-16 10:29N 38°58' W 074°58'0 0.0
2018-Jun-16 09:59N 38°58' W 074°58'0 0.0
2018-Jun-16 09:29N 38°58' W 074°58'0 0.0
2018-Jun-16 08:59N 38°58' W 074°58'0 0.0
2018-Jun-16 08:29N 38°58' W 074°58'0 0.0
2018-Jun-16 07:59N 38°58' W 074°58'0 0.0
2018-Jun-16 07:29N 38°58' W 074°58'0 0.0
2018-Jun-16 06:59N 38°58' W 074°58'0 0.0
2018-Jun-16 06:29N 38°58' W 074°58'0 0.0
2018-Jun-16 05:59N 38°58' W 074°58'0 0.0
2018-Jun-16 05:29N 38°58' W 074°58'0 0.0
2018-Jun-16 04:59N 38°58' W 074°58'0 0.0
2018-Jun-16 04:29N 38°58' W 074°58'0 0.0
2018-Jun-16 03:59N 38°58' W 074°58'0 0.0
2018-Jun-16 03:29N 38°58' W 074°58'0 0.0
2018-Jun-16 02:56N 38°58' W 074°58'0 0.0
2018-Jun-16 02:29N 38°58' W 074°58'2 0.2
2018-Jun-15 17:26N 38°57' W 074°60'510.9
2018-Jun-15 16:59N 38°53' W 075°04'7 2.4
2018-Jun-15 14:03N 38°58' W 074°58'0 7.6
2018-Jun-15 13:59N 38°58' W 074°58'712.3
2018-Jun-15 13:27N 38°53' W 075°04'611.7
2018-Jun-15 12:58N 38°48' W 075°07'1 1.9
2018-Jun-15 12:29N 38°47' W 075°07'5 8.8
2018-Jun-15 11:56N 38°52' W 075°05'511.4
2018-Jun-15 11:30N 38°56' W 075°02'4 8.0
2018-Jun-15 11:00N 38°58' W 074°58'0 0.0
2018-Jun-15 10:30N 38°58' W 074°58'0 0.0
2018-Jun-15 09:58N 38°58' W 074°58'0 0.0
2018-Jun-15 09:28N 38°58' W 074°58'0 0.0
2018-Jun-15 08:58N 38°58' W 074°58'0 0.0
2018-Jun-15 08:22N 38°58' W 074°58'0 0.0
2018-Jun-15 07:55N 38°58' W 074°58'0 0.0
2018-Jun-15 07:22N 38°58' W 074°58'0 0.0
2018-Jun-15 06:55N 38°58' W 074°58'0 0.0
2018-Jun-15 06:22N 38°58' W 074°58'0 0.0
2018-Jun-15 05:58N 38°58' W 074°58'0 0.0
2018-Jun-15 05:28N 38°58' W 074°58'0 0.0
2018-Jun-15 04:55N 38°58' W 074°58'0 0.0
2018-Jun-15 04:28N 38°58' W 074°58'0 0.0
2018-Jun-15 03:58N 38°58' W 074°58'0 0.0
2018-Jun-15 03:28N 38°58' W 074°58'0 0.0
2018-Jun-15 02:58N 38°58' W 074°58'0 0.0
2018-Jun-15 02:28N 38°58' W 074°58'0 0.0
2018-Jun-15 01:58N 38°58' W 074°58'0 0.0
2018-Jun-15 01:28N 38°58' W 074°58'0 0.0
2018-Jun-14 17:04N 38°58' W 074°58'0 0.0
2018-Jun-14 16:46N 38°58' W 074°58'0 0.0
2018-Jun-14 16:16N 38°58' W 074°58'0 0.0
2018-Jun-14 12:16N 38°58' W 074°58'0 0.0
2018-Jun-14 11:43N 38°58' W 074°58'0 0.0
2018-Jun-14 11:28N 38°58' W 074°58'0 0.0
2018-Jun-14 09:55N 38°58' W 074°58'0 0.0
2018-Jun-14 09:25N 38°58' W 074°58'0 0.0
2018-Jun-14 01:01N 38°58' W 074°58'13 9.8
2018-Jun-13 23:40N 38°47' W 075°07'13 6.3
2018-Jun-13 21:33N 38°58' W 074°58'0 4.8
2018-Jun-13 21:29N 38°58' W 074°58'0 0.1
2018-Jun-13 18:38N 38°58' W 074°58'0 0.4
2018-Jun-13 18:30N 38°58' W 074°58'0 0.0
2018-Jun-13 17:46N 38°58' W 074°58'2 7.0
2018-Jun-13 17:30N 38°57' W 074°59'2 0.8
2018-Jun-13 14:58N 38°56' W 075°01'0 0.3
2018-Jun-13 13:49N 38°56' W 075°01'411.3
2018-Jun-13 13:30N 38°53' W 075°02'611.6
2018-Jun-13 12:59N 38°48' W 075°07'1 1.8
2018-Jun-13 12:30N 38°47' W 075°07'5 9.5
2018-Jun-13 12:00N 38°52' W 075°05'910.0
2018-Jun-13 11:07N 38°58' W 074°58'0 0.0
2018-Jun-13 02:46N 38°58' W 074°58'0 0.0
2018-Jun-13 01:34N 38°58' W 074°58'0 0.0
2018-Jun-13 01:08N 38°58' W 074°58'0 2.6
2018-Jun-13 01:00N 38°58' W 074°58'811.7
2018-Jun-13 00:20N 38°52' W 075°05'412.6
2018-Jun-13 00:00N 38°49' W 075°07'1 2.9
2018-Jun-12 23:29N 38°47' W 075°07'5 9.4
2018-Jun-12 23:00N 38°51' W 075°05'610.9
2018-Jun-12 22:29N 38°56' W 075°01'3 7.3
2018-Jun-12 22:01N 38°58' W 074°58'2 3.7
2018-Jun-12 21:31N 38°57' W 074°60'612.4
2018-Jun-12 21:01N 38°52' W 075°03'5 9.2
2018-Jun-12 20:30N 38°48' W 075°07'1 2.1
2018-Jun-12 19:59N 38°47' W 075°07'4 8.4
2018-Jun-12 19:28N 38°51' W 075°06'9 5.1
2018-Jun-12 17:40N 38°58' W 074°58'510.4
2018-Jun-12 17:12N 38°55' W 075°02'311.0
2018-Jun-12 16:54N 38°52' W 075°04'511.3
2018-Jun-12 16:30N 38°48' W 075°07'1 1.8
2018-Jun-12 15:56N 38°47' W 075°07'1310.6
2018-Jun-12 14:41N 38°58' W 074°58'0 0.2
2018-Jun-12 14:13N 38°58' W 074°58'1 3.3
2018-Jun-12 14:00N 38°58' W 074°58'611.2
2018-Jun-12 13:30N 38°54' W 075°03'612.3
2018-Jun-12 13:00N 38°48' W 075°07'1 2.9
2018-Jun-12 12:30N 38°47' W 075°07'4 7.9
2018-Jun-12 12:00N 38°51' W 075°06'611.8
2018-Jun-12 11:30N 38°56' W 075°02'4 6.3
2018-Jun-12 10:53N 38°58' W 074°58'0 0.0
2018-Jun-12 10:30N 38°58' W 074°58'0 0.0
2018-Jun-12 09:58N 38°58' W 074°58'0 0.0
2018-Jun-12 09:28N 38°58' W 074°58'0 0.0
2018-Jun-12 08:49N 38°58' W 074°58'0 0.0
2018-Jun-12 08:25N 38°58' W 074°58'0 0.0
2018-Jun-12 07:58N 38°58' W 074°58'0 0.0
2018-Jun-12 07:28N 38°58' W 074°58'0 0.0
2018-Jun-12 06:52N 38°58' W 074°58'0 0.0
2018-Jun-12 06:25N 38°58' W 074°58'0 0.0
2018-Jun-12 05:55N 38°58' W 074°58'0 0.0
2018-Jun-12 05:28N 38°58' W 074°58'0 0.0
2018-Jun-12 04:52N 38°58' W 074°58'0 0.0
2018-Jun-12 04:28N 38°58' W 074°58'0 0.0
2018-Jun-12 03:55N 38°58' W 074°58'0 0.0
2018-Jun-12 03:28N 38°58' W 074°58'0 0.0
2018-Jun-12 02:55N 38°58' W 074°58'0 0.0
2018-Jun-12 02:25N 38°58' W 074°58'0 0.0
2018-Jun-12 01:58N 38°58' W 074°58'0 0.0
2018-Jun-12 01:28N 38°58' W 074°58'1 2.9
2018-Jun-12 01:01N 38°57' W 074°59'611.1
2018-Jun-12 00:28N 38°53' W 075°04'511.6
2018-Jun-12 00:00N 38°48' W 075°07'1 0.4
2018-Jun-11 20:42N 38°49' W 075°07'11 3.5
2018-Jun-11 17:35N 38°58' W 074°58'1 0.2
2018-Jun-11 14:38N 38°58' W 074°58'0 0.0
2018-Jun-11 14:13N 38°58' W 074°58'0 0.0
2018-Jun-11 10:39N 38°58' W 074°58'0 0.0
2018-Jun-11 04:10N 38°58' W 074°58'1 0.0
2018-Jun-10 16:50N 38°58' W 074°58'0 1.4
2018-Jun-10 16:30N 38°58' W 074°58'0 0.0
2018-Jun-10 14:46N 38°58' W 074°58'1 1.5
2018-Jun-10 14:15N 38°59' W 074°58'0 0.1
2018-Jun-10 13:06N 38°59' W 074°58'0 0.3
2018-Jun-10 12:44N 38°59' W 074°58'0 0.3
2018-Jun-10 11:23N 38°59' W 074°58'1 1.3
2018-Jun-10 10:22N 38°58' W 074°58'  
Track history (hours):
 
Tides and Currents Weather Stations Pressure Air Temp Water Temp Dewpoint Dewpoint Depression Visibility Wind Speed Wind Dir Waves Ship Positions

Delaware

Owner: DELAWARE RIVER & BAY AUTHORITY, NORTH CAPE MAY, NJ. More information available from US FCC via Universal Licensing System and Coast Guard Vessel Documentation Center.

Last reported at 2018-Jun-20 01:13 UTC. Time now 2018-Jun-20 01:58 UTC.
Position N 38°58' W 074°58'.

; draft 2.2 m.

Type: Ship. MMSI: 366914210.

Date/timePositionNaut miles runAvg speedWind from/ knotsBaromVisibWave heightAir tempDewpointWater temp
2018-Jun-20 01:13N 38°58' W 074°58'1 6.6
2018-Jun-20 00:59N 38°57' W 074°59'510.9
2018-Jun-20 00:31N 38°53' W 075°03'710.3
2018-Jun-19 23:50N 38°47' W 075°07'0 0.1
2018-Jun-19 23:26N 38°47' W 075°07'1210.2
2018-Jun-19 22:19N 38°57' W 074°60'2 3.7
2018-Jun-19 21:46N 38°58' W 074°58'2 7.8
2018-Jun-19 21:29N 38°57' W 074°60'11 8.4
2018-Jun-19 20:09N 38°47' W 075°07'2 5.3
2018-Jun-19 19:41N 38°49' W 075°07'4 0.2
2018-Jun-18 21:01N 38°53' W 075°04'6 6.4
2018-Jun-18 20:03N 38°47' W 075°07'0 1.4
2018-Jun-18 20:00N 38°47' W 075°07'0 0.0
2018-Jun-18 15:55N 38°47' W 075°07'610.6
2018-Jun-18 15:19N 38°53' W 075°04'711.1
2018-Jun-18 14:42N 38°58' W 074°58'1 2.7
2018-Jun-18 14:30N 38°58' W 074°58'0 1.0
2018-Jun-18 14:00N 38°58' W 074°58'612.4
2018-Jun-18 13:30N 38°53' W 075°03'611.7
2018-Jun-18 13:00N 38°48' W 075°07'1 2.5
2018-Jun-18 12:30N 38°47' W 075°07'3 6.8
2018-Jun-18 12:00N 38°50' W 075°06'713.3
2018-Jun-18 11:30N 38°56' W 075°01'4 7.5
2018-Jun-18 11:00N 38°58' W 074°58'0 0.0
2018-Jun-18 10:28N 38°58' W 074°58'0 0.0
2018-Jun-18 09:58N 38°58' W 074°58'0 0.0
2018-Jun-18 09:28N 38°58' W 074°58'0 0.0
2018-Jun-18 08:58N 38°58' W 074°58'0 0.0
2018-Jun-18 08:28N 38°58' W 074°58'0 0.0
2018-Jun-18 07:58N 38°58' W 074°58'0 0.0
2018-Jun-18 07:28N 38°58' W 074°58'0 0.0
2018-Jun-18 06:58N 38°58' W 074°58'0 0.0
2018-Jun-18 06:25N 38°58' W 074°58'0 0.0
2018-Jun-18 05:58N 38°58' W 074°58'0 0.0
2018-Jun-18 05:28N 38°58' W 074°58'0 0.0
2018-Jun-18 04:58N 38°58' W 074°58'0 0.0
2018-Jun-18 04:28N 38°58' W 074°58'0 0.0
2018-Jun-18 03:58N 38°58' W 074°58'0 0.0
2018-Jun-18 03:28N 38°58' W 074°58'0 0.0
2018-Jun-18 02:58N 38°58' W 074°58'0 0.0
2018-Jun-18 02:28N 38°58' W 074°58'0 0.0
2018-Jun-18 01:58N 38°58' W 074°58'0 0.0
2018-Jun-18 01:25N 38°58' W 074°58'2 4.0
2018-Jun-18 00:59N 38°57' W 074°59'613.1
2018-Jun-18 00:30N 38°52' W 075°04'0 0.3
2018-Jun-17 23:06N 38°52' W 075°05'8 6.5
2018-Jun-17 21:51N 38°58' W 074°58'3 7.6
2018-Jun-17 21:30N 38°57' W 075°00'510.5
2018-Jun-17 21:00N 38°52' W 075°03'2 0.4
2018-Jun-17 15:14N 38°54' W 075°03'511.3
2018-Jun-17 14:46N 38°58' W 074°58'1 2.7
2018-Jun-17 14:30N 38°58' W 074°58'13 6.3
2018-Jun-17 12:24N 38°47' W 075°07'13 1.9
2018-Jun-17 05:19N 38°58' W 074°58'0 0.0
2018-Jun-17 04:13N 38°58' W 074°58'0 0.0
2018-Jun-17 04:00N 38°58' W 074°58'0 0.0
2018-Jun-17 03:30N 38°58' W 074°58'0 0.0
2018-Jun-17 03:00N 38°58' W 074°58'0 0.0
2018-Jun-17 02:30N 38°58' W 074°58'0 0.0
2018-Jun-17 01:59N 38°58' W 074°58'0 0.0
2018-Jun-16 14:35N 38°58' W 074°58'0 0.2
2018-Jun-16 14:18N 38°58' W 074°58'2 4.7
2018-Jun-16 13:58N 38°57' W 074°59'612.3
2018-Jun-16 13:31N 38°53' W 075°04'611.6
2018-Jun-16 13:01N 38°48' W 075°07'1 1.1
2018-Jun-16 12:30N 38°47' W 075°07'4 8.4
2018-Jun-16 12:00N 38°51' W 075°06'510.9
2018-Jun-16 11:30N 38°55' W 075°02'4 8.0
2018-Jun-16 11:00N 38°58' W 074°58'0 0.0
2018-Jun-16 10:29N 38°58' W 074°58'0 0.0
2018-Jun-16 09:59N 38°58' W 074°58'0 0.0
2018-Jun-16 09:29N 38°58' W 074°58'0 0.0
2018-Jun-16 08:59N 38°58' W 074°58'0 0.0
2018-Jun-16 08:29N 38°58' W 074°58'0 0.0
2018-Jun-16 07:59N 38°58' W 074°58'0 0.0
2018-Jun-16 07:29N 38°58' W 074°58'0 0.0
2018-Jun-16 06:59N 38°58' W 074°58'0 0.0
2018-Jun-16 06:29N 38°58' W 074°58'0 0.0
2018-Jun-16 05:59N 38°58' W 074°58'0 0.0
2018-Jun-16 05:29N 38°58' W 074°58'0 0.0
2018-Jun-16 04:59N 38°58' W 074°58'0 0.0
2018-Jun-16 04:29N 38°58' W 074°58'0 0.0
2018-Jun-16 03:59N 38°58' W 074°58'0 0.0
2018-Jun-16 03:29N 38°58' W 074°58'0 0.0
2018-Jun-16 02:56N 38°58' W 074°58'0 0.0
2018-Jun-16 02:29N 38°58' W 074°58'2 0.2
2018-Jun-15 17:26N 38°57' W 074°60'510.9
2018-Jun-15 16:59N 38°53' W 075°04'7 2.4
2018-Jun-15 14:03N 38°58' W 074°58'0 7.6
2018-Jun-15 13:59N 38°58' W 074°58'712.3
2018-Jun-15 13:27N 38°53' W 075°04'611.7
2018-Jun-15 12:58N 38°48' W 075°07'1 1.9
2018-Jun-15 12:29N 38°47' W 075°07'5 8.8
2018-Jun-15 11:56N 38°52' W 075°05'511.4
2018-Jun-15 11:30N 38°56' W 075°02'4 8.0
2018-Jun-15 11:00N 38°58' W 074°58'0 0.0
2018-Jun-15 10:30N 38°58' W 074°58'0 0.0
2018-Jun-15 09:58N 38°58' W 074°58'0 0.0
2018-Jun-15 09:28N 38°58' W 074°58'0 0.0
2018-Jun-15 08:58N 38°58' W 074°58'0 0.0
2018-Jun-15 08:22N 38°58' W 074°58'0 0.0
2018-Jun-15 07:55N 38°58' W 074°58'0 0.0
2018-Jun-15 07:22N 38°58' W 074°58'0 0.0
2018-Jun-15 06:55N 38°58' W 074°58'0 0.0
2018-Jun-15 06:22N 38°58' W 074°58'0 0.0
2018-Jun-15 05:58N 38°58' W 074°58'0 0.0
2018-Jun-15 05:28N 38°58' W 074°58'0 0.0
2018-Jun-15 04:55N 38°58' W 074°58'0 0.0
2018-Jun-15 04:28N 38°58' W 074°58'0 0.0
2018-Jun-15 03:58N 38°58' W 074°58'0 0.0
2018-Jun-15 03:28N 38°58' W 074°58'0 0.0
2018-Jun-15 02:58N 38°58' W 074°58'0 0.0
2018-Jun-15 02:28N 38°58' W 074°58'0 0.0
2018-Jun-15 01:58N 38°58' W 074°58'0 0.0
2018-Jun-15 01:28N 38°58' W 074°58'0 0.0
2018-Jun-14 17:04N 38°58' W 074°58'0 0.0
2018-Jun-14 16:46N 38°58' W 074°58'0 0.0
2018-Jun-14 16:16N 38°58' W 074°58'0 0.0
2018-Jun-14 12:16N 38°58' W 074°58'0 0.0
2018-Jun-14 11:43N 38°58' W 074°58'0 0.0
2018-Jun-14 11:28N 38°58' W 074°58'0 0.0
2018-Jun-14 09:55N 38°58' W 074°58'0 0.0
2018-Jun-14 09:25N 38°58' W 074°58'0 0.0
2018-Jun-14 01:01N 38°58' W 074°58'13 9.8
2018-Jun-13 23:40N 38°47' W 075°07'13 6.3
2018-Jun-13 21:33N 38°58' W 074°58'0 4.8
2018-Jun-13 21:29N 38°58' W 074°58'0 0.1
2018-Jun-13 18:38N 38°58' W 074°58'0 0.4
2018-Jun-13 18:30N 38°58' W 074°58'0 0.0
2018-Jun-13 17:46N 38°58' W 074°58'2 7.0
2018-Jun-13 17:30N 38°57' W 074°59'2 0.8
2018-Jun-13 14:58N 38°56' W 075°01'0 0.3
2018-Jun-13 13:49N 38°56' W 075°01'411.3
2018-Jun-13 13:30N 38°53' W 075°02'611.6
2018-Jun-13 12:59N 38°48' W 075°07'1 1.8
2018-Jun-13 12:30N 38°47' W 075°07'5 9.5
2018-Jun-13 12:00N 38°52' W 075°05'910.0
2018-Jun-13 11:07N 38°58' W 074°58'0 0.0
2018-Jun-13 02:46N 38°58' W 074°58'0 0.0
2018-Jun-13 01:34N 38°58' W 074°58'0 0.0
2018-Jun-13 01:08N 38°58' W 074°58'0 2.6
2018-Jun-13 01:00N 38°58' W 074°58'811.7
2018-Jun-13 00:20N 38°52' W 075°05'412.6
2018-Jun-13 00:00N 38°49' W 075°07'1 2.9
2018-Jun-12 23:29N 38°47' W 075°07'5 9.4
2018-Jun-12 23:00N 38°51' W 075°05'610.9
2018-Jun-12 22:29N 38°56' W 075°01'3 7.3
2018-Jun-12 22:01N 38°58' W 074°58'2 3.7
2018-Jun-12 21:31N 38°57' W 074°60'612.4
2018-Jun-12 21:01N 38°52' W 075°03'5 9.2
2018-Jun-12 20:30N 38°48' W 075°07'1 2.1
2018-Jun-12 19:59N 38°47' W 075°07'4 8.4
2018-Jun-12 19:28N 38°51' W 075°06'9 5.1
2018-Jun-12 17:40N 38°58' W 074°58'510.4
2018-Jun-12 17:12N 38°55' W 075°02'311.0
2018-Jun-12 16:54N 38°52' W 075°04'511.3
2018-Jun-12 16:30N 38°48' W 075°07'1 1.8
2018-Jun-12 15:56N 38°47' W 075°07'1310.6
2018-Jun-12 14:41N 38°58' W 074°58'0 0.2
2018-Jun-12 14:13N 38°58' W 074°58'1 3.3
2018-Jun-12 14:00N 38°58' W 074°58'611.2
2018-Jun-12 13:30N 38°54' W 075°03'612.3
2018-Jun-12 13:00N 38°48' W 075°07'1 2.9
2018-Jun-12 12:30N 38°47' W 075°07'4 7.9
2018-Jun-12 12:00N 38°51' W 075°06'611.8
2018-Jun-12 11:30N 38°56' W 075°02'4 6.3
2018-Jun-12 10:53N 38°58' W 074°58'0 0.0
2018-Jun-12 10:30N 38°58' W 074°58'0 0.0
2018-Jun-12 09:58N 38°58' W 074°58'0 0.0
2018-Jun-12 09:28N 38°58' W 074°58'0 0.0
2018-Jun-12 08:49N 38°58' W 074°58'0 0.0
2018-Jun-12 08:25N 38°58' W 074°58'0 0.0
2018-Jun-12 07:58N 38°58' W 074°58'0 0.0
2018-Jun-12 07:28N 38°58' W 074°58'0 0.0
2018-Jun-12 06:52N 38°58' W 074°58'0 0.0
2018-Jun-12 06:25N 38°58' W 074°58'0 0.0
2018-Jun-12 05:55N 38°58' W 074°58'0 0.0
2018-Jun-12 05:28N 38°58' W 074°58'0 0.0
2018-Jun-12 04:52N 38°58' W 074°58'0 0.0
2018-Jun-12 04:28N 38°58' W 074°58'0 0.0
2018-Jun-12 03:55N 38°58' W 074°58'0 0.0
2018-Jun-12 03:28N 38°58' W 074°58'0 0.0
2018-Jun-12 02:55N 38°58' W 074°58'0 0.0
2018-Jun-12 02:25N 38°58' W 074°58'0 0.0
2018-Jun-12 01:58N 38°58' W 074°58'0 0.0
2018-Jun-12 01:28N 38°58' W 074°58'1 2.9
2018-Jun-12 01:01N 38°57' W 074°59'611.1
2018-Jun-12 00:28N 38°53' W 075°04'511.6
2018-Jun-12 00:00N 38°48' W 075°07'1 0.4
2018-Jun-11 20:42N 38°49' W 075°07'11 3.5
2018-Jun-11 17:35N 38°58' W 074°58'1 0.2
2018-Jun-11 14:38N 38°58' W 074°58'0 0.0
2018-Jun-11 14:13N 38°58' W 074°58'0 0.0
2018-Jun-11 10:39N 38°58' W 074°58'0 0.0
2018-Jun-11 04:10N 38°58' W 074°58'1 0.0
2018-Jun-10 16:50N 38°58' W 074°58'0 1.4
2018-Jun-10 16:30N 38°58' W 074°58'0 0.0
2018-Jun-10 14:46N 38°58' W 074°58'1 1.5
2018-Jun-10 14:15N 38°59' W 074°58'0 0.1
2018-Jun-10 13:06N 38°59' W 074°58'0 0.3
2018-Jun-10 12:44N 38°59' W 074°58'0 0.3
2018-Jun-10 11:23N 38°59' W 074°58'1 1.3
2018-Jun-10 10:22N 38°58' W 074°58'  

Dump ship's entire track history